createdAt,value
2022-10-13T00:01:01.083Z,102009.47
2022-10-13T00:03:28.021Z,101999.84
2022-10-13T00:05:54.896Z,101997.13
2022-10-13T00:08:22.368Z,101997.91
2022-10-13T00:10:51.168Z,101993.47
2022-10-13T00:13:23.710Z,101995.13
2022-10-13T00:15:50.631Z,101993.34
2022-10-13T00:18:17.688Z,101991.53
2022-10-13T00:20:48.528Z,101988.03
2022-10-13T00:23:16.390Z,101982.69
2022-10-13T00:25:45.675Z,101994.03
2022-10-13T00:28:13.357Z,101987.06
2022-10-13T00:30:40.655Z,101988.78
2022-10-13T00:33:08.936Z,101993.88
2022-10-13T00:35:45.335Z,101995.56
2022-10-13T00:38:17.148Z,101992.00
2022-10-13T00:40:53.754Z,101988.44
2022-10-13T00:43:27.321Z,101984.91
2022-10-13T00:45:54.688Z,101980.50
2022-10-13T00:48:27.715Z,101979.50
2022-10-13T00:50:56.462Z,101975.16
2022-10-13T00:53:27.511Z,101976.81
2022-10-13T00:55:55.248Z,101985.38
2022-10-13T00:58:25.563Z,101980.13
2022-10-13T01:00:53.647Z,101981.84
2022-10-13T01:03:21.372Z,101985.22
2022-10-13T01:05:50.852Z,101979.97
2022-10-13T01:08:20.031Z,101976.34
2022-10-13T01:11:33.239Z,101984.13
2022-10-13T01:14:26.825Z,101974.47
2022-10-13T01:17:04.203Z,101969.09
2022-10-13T01:20:27.456Z,101966.56
2022-10-13T01:23:27.628Z,101962.97
2022-10-13T01:26:43.743Z,101959.41
2022-10-13T01:29:58.955Z,101955.78
2022-10-13T01:33:11.951Z,101957.34
2022-10-13T01:35:56.783Z,101949.44
2022-10-13T01:38:35.519Z,101939.81
2022-10-13T01:41:27.606Z,101944.06
2022-10-13T01:44:02.749Z,101947.44
2022-10-13T01:46:38.595Z,101937.94
2022-10-13T01:49:11.337Z,101940.53
2022-10-13T01:51:40.083Z,101939.66
2022-10-13T01:54:07.276Z,101924.94
2022-10-13T01:56:34.152Z,101923.22
2022-10-13T01:59:10.087Z,101918.88
2022-10-13T02:02:00.168Z,101908.44
2022-10-13T02:04:54.243Z,101912.72
2022-10-13T02:07:46.163Z,101900.56
2022-10-13T02:10:48.445Z,101897.03
2022-10-13T02:13:17.743Z,101903.06
2022-10-13T02:15:49.456Z,101901.34
2022-10-13T02:18:22.527Z,101897.03
2022-10-13T02:20:51.146Z,101903.91
2022-10-13T02:23:19.301Z,101890.06
2022-10-13T02:25:47.682Z,101884.00
2022-10-13T02:28:16.062Z,101884.78
2022-10-13T02:30:44.728Z,101879.53
2022-10-13T02:33:12.701Z,101877.78
2022-10-13T02:35:39.961Z,101882.91
2022-10-13T02:38:06.991Z,101882.84
2022-10-13T02:40:33.965Z,101880.25
2022-10-13T02:43:00.871Z,101871.59
2022-10-13T02:45:27.755Z,101870.66
2022-10-13T02:47:55.366Z,101860.97
2022-10-13T02:50:22.245Z,101863.72
2022-10-13T02:52:50.497Z,101858.44
2022-10-13T02:55:17.456Z,101859.22
2022-10-13T02:57:46.076Z,101860.16
2022-10-13T03:00:14.592Z,101848.78
2022-10-13T03:02:41.811Z,101854.03
2022-10-13T03:05:09.624Z,101857.50
2022-10-13T03:07:36.913Z,101852.31
2022-10-13T03:10:04.996Z,101852.25
2022-10-13T03:12:31.868Z,101846.19
2022-10-13T03:14:58.732Z,101849.63
2022-10-13T03:17:25.833Z,101851.34
2022-10-13T03:19:52.691Z,101840.75
2022-10-13T03:22:19.785Z,101849.56
2022-10-13T03:24:46.862Z,101844.44
2022-10-13T03:27:14.247Z,101849.56
2022-10-13T03:29:41.199Z,101853.88
2022-10-13T03:32:08.059Z,101845.22
2022-10-13T03:34:34.954Z,101838.38
2022-10-13T03:37:01.864Z,101841.84
2022-10-13T03:39:33.938Z,101834.09
2022-10-13T03:42:01.856Z,101835.88
2022-10-13T03:44:28.760Z,101847.19
2022-10-13T03:46:55.627Z,101838.56
2022-10-13T03:49:22.524Z,101835.13
2022-10-13T03:51:49.401Z,101837.84
2022-10-13T03:54:16.385Z,101830.94
2022-10-13T03:56:46.733Z,101833.53
2022-10-13T03:59:14.648Z,101834.47
2022-10-13T04:01:41.564Z,101829.28
2022-10-13T04:04:12.351Z,101825.88
2022-10-13T04:06:41.873Z,101822.50
2022-10-13T04:09:09.525Z,101823.44
2022-10-13T04:11:36.414Z,101822.66
2022-10-13T04:14:03.666Z,101815.84
2022-10-13T04:16:32.199Z,101821.97
2022-10-13T04:19:03.543Z,101818.56
2022-10-13T04:21:33.511Z,101816.91
2022-10-13T04:24:01.448Z,101809.13
2022-10-13T04:26:31.345Z,101807.41
2022-10-13T04:28:59.317Z,101811.06
2022-10-13T04:31:28.932Z,101806.84
2022-10-13T04:33:56.133Z,101786.16
2022-10-13T04:36:23.871Z,101787.94
2022-10-13T04:38:51.281Z,101782.75
2022-10-13T04:41:19.092Z,101787.88
2022-10-13T04:43:50.752Z,101780.97
2022-10-13T04:46:25.524Z,101780.22
2022-10-13T04:48:55.563Z,101782.78
2022-10-13T04:51:26.539Z,101779.53
2022-10-13T04:54:01.387Z,101770.94
2022-10-13T04:56:28.524Z,101775.25
2022-10-13T04:59:00.044Z,101775.41
2022-10-13T05:01:27.249Z,101776.34
2022-10-13T05:03:57.130Z,101779.03
2022-10-13T05:06:28.629Z,101775.63
2022-10-13T05:08:56.222Z,101779.22
2022-10-13T05:11:24.341Z,101772.38
2022-10-13T05:13:51.383Z,101775.97
2022-10-13T05:16:20.942Z,101762.91
2022-10-13T05:18:49.443Z,101778.66
2022-10-13T05:21:20.406Z,101764.06
2022-10-13T05:23:47.408Z,101761.53
2022-10-13T05:26:17.950Z,101754.66
2022-10-13T05:28:45.564Z,101754.72
2022-10-13T05:31:21.459Z,101750.41
2022-10-13T05:33:49.398Z,101749.59
2022-10-13T05:36:31.963Z,101760.00
2022-10-13T05:39:03.440Z,101754.00
2022-10-13T05:41:30.744Z,101754.06
2022-10-13T05:44:01.556Z,101752.41
2022-10-13T05:46:28.732Z,101745.47
2022-10-13T05:48:55.784Z,101752.47
2022-10-13T05:51:33.868Z,101758.66
2022-10-13T05:54:24.362Z,101746.41
2022-10-13T05:57:00.430Z,101744.00
2022-10-13T05:59:33.015Z,101748.34
2022-10-13T06:02:01.912Z,101745.84
2022-10-13T06:04:57.299Z,101740.66
2022-10-13T06:07:24.798Z,101731.84
2022-10-13T06:09:51.847Z,101744.28
2022-10-13T06:12:19.026Z,101742.56
2022-10-13T06:14:46.472Z,101733.88
2022-10-13T06:17:14.150Z,101726.66
2022-10-13T06:19:43.204Z,101733.88
2022-10-13T06:22:10.085Z,101739.88
2022-10-13T06:24:36.987Z,101746.06
2022-10-13T06:27:07.209Z,101725.06
2022-10-13T06:29:34.101Z,101750.50
2022-10-13T06:32:00.946Z,101747.06
2022-10-13T06:34:27.809Z,101747.94
2022-10-13T06:36:54.671Z,101743.72
2022-10-13T06:39:21.607Z,101741.19
2022-10-13T06:41:49.689Z,101732.47
2022-10-13T06:44:16.663Z,101740.41
2022-10-13T06:46:43.520Z,101738.72
2022-10-13T06:49:10.408Z,101730.91
2022-10-13T06:51:37.507Z,101742.31
2022-10-13T06:54:04.366Z,101735.50
2022-10-13T06:56:33.517Z,101732.09
2022-10-13T06:59:05.542Z,101730.47
2022-10-13T07:01:36.684Z,101728.75
2022-10-13T07:04:09.125Z,101732.31
2022-10-13T07:06:36.042Z,101726.19
2022-10-13T07:09:07.858Z,101728.91
2022-10-13T07:11:35.777Z,101721.22
2022-10-13T07:14:03.049Z,101717.00
2022-10-13T07:16:30.065Z,101719.66
2022-10-13T07:18:56.910Z,101721.50
2022-10-13T07:21:23.761Z,101719.88
2022-10-13T07:23:50.610Z,101720.81
2022-10-13T07:26:17.574Z,101713.13
2022-10-13T07:28:45.157Z,101726.25
2022-10-13T07:31:17.582Z,101713.34
2022-10-13T07:33:47.714Z,101724.78
2022-10-13T07:36:17.138Z,101715.44
2022-10-13T07:38:44.110Z,101721.63
2022-10-13T07:41:12.621Z,101716.56
2022-10-13T07:43:40.230Z,101715.91
2022-10-13T07:46:08.661Z,101720.47
2022-10-13T07:48:36.146Z,101722.47
2022-10-13T07:51:09.910Z,101713.13
2022-10-13T07:53:37.087Z,101709.00
2022-10-13T07:56:07.516Z,101707.50
2022-10-13T07:58:38.255Z,101709.44
2022-10-13T08:01:05.531Z,101706.22
2022-10-13T08:03:38.862Z,101710.78
2022-10-13T08:06:07.624Z,101700.53
2022-10-13T08:08:34.916Z,101699.84
2022-10-13T08:11:10.018Z,101700.88
2022-10-13T08:13:38.285Z,101688.84
2022-10-13T08:16:17.119Z,101692.44
2022-10-13T08:18:43.996Z,101690.00
2022-10-13T08:21:57.471Z,101691.84
2022-10-13T08:24:06.344Z,101691.06
2022-10-13T08:26:33.472Z,101685.91
2022-10-13T08:29:20.593Z,101681.63
2022-10-13T08:31:47.317Z,101681.72
2022-10-13T08:34:14.283Z,101679.19
2022-10-13T08:36:41.197Z,101684.50
2022-10-13T08:39:08.122Z,101673.28
2022-10-13T08:41:45.960Z,101678.59
2022-10-13T08:47:44.799Z,101667.50
2022-10-13T08:50:16.382Z,101679.81
2022-10-13T08:52:59.807Z,101678.97
2022-10-13T08:55:43.159Z,101671.19
2022-10-13T08:58:20.994Z,101673.84
2022-10-13T09:00:47.872Z,101679.13
2022-10-13T09:03:29.259Z,101683.53
2022-10-13T09:06:10.291Z,101688.81
2022-10-13T09:09:01.945Z,101688.84
2022-10-13T09:11:34.778Z,101682.75
2022-10-13T09:14:07.071Z,101688.03
2022-10-13T09:16:40.370Z,101688.06
2022-10-13T09:19:25.950Z,101684.59
2022-10-13T09:22:13.657Z,101677.63
2022-10-13T09:24:40.811Z,101685.50
2022-10-13T09:27:14.764Z,101683.78
2022-10-13T09:29:42.867Z,101682.06
2022-10-13T09:32:18.990Z,101679.44
2022-10-13T09:34:47.081Z,101677.78
2022-10-13T09:37:21.434Z,101670.84
2022-10-13T09:40:20.583Z,101668.25
2022-10-13T09:42:54.372Z,101661.25
2022-10-13T09:45:24.791Z,101667.41
2022-10-13T09:47:55.447Z,101664.81
2022-10-13T09:50:31.894Z,101668.31
2022-10-13T09:53:29.824Z,101663.06
2022-10-13T09:56:30.640Z,101658.72
2022-10-13T09:59:27.387Z,101663.09
2022-10-13T10:01:56.965Z,101656.09
2022-10-13T10:04:31.928Z,101649.97
2022-10-13T10:06:58.810Z,101651.72
2022-10-13T10:09:47.450Z,101650.88
2022-10-13T10:12:24.206Z,101643.84
2022-10-13T10:14:54.547Z,101642.97
2022-10-13T10:17:37.023Z,101628.09
2022-10-13T10:20:06.587Z,101636.81
2022-10-13T10:22:55.304Z,101642.06
2022-10-13T10:25:41.671Z,101631.56
2022-10-13T10:28:28.887Z,101624.50
2022-10-13T10:31:25.353Z,101611.31
2022-10-13T10:34:27.133Z,101603.34
2022-10-13T10:37:25.536Z,101605.09
2022-10-13T10:40:41.501Z,101596.25
2022-10-13T10:43:38.974Z,101590.03
2022-10-13T10:46:23.558Z,101588.22
2022-10-13T10:48:56.765Z,101586.44
2022-10-13T10:51:31.068Z,101588.16
2022-10-13T10:54:48.375Z,101583.72
2022-10-13T10:57:27.961Z,101583.66
2022-10-13T11:00:15.749Z,101571.31
2022-10-13T11:03:27.517Z,101571.25
2022-10-13T11:05:57.369Z,101573.84
2022-10-13T11:08:44.602Z,101569.47
2022-10-13T11:11:38.429Z,101561.47
2022-10-13T11:14:10.675Z,101563.13
2022-10-13T11:17:02.103Z,101557.75
2022-10-13T11:19:34.377Z,101563.78
2022-10-13T11:22:01.144Z,101556.69
2022-10-13T11:24:42.119Z,101556.63
2022-10-13T11:27:35.079Z,101562.75
2022-10-13T11:30:03.479Z,101559.25
2022-10-13T11:32:41.073Z,101561.78
2022-10-13T11:35:08.331Z,101559.16
2022-10-13T11:38:06.780Z,101554.75
2022-10-13T11:41:10.824Z,101549.47
2022-10-13T11:43:51.274Z,101544.25
2022-10-13T11:46:57.901Z,101546.81
2022-10-13T11:50:04.262Z,101546.72
2022-10-13T11:53:08.009Z,101544.91
2022-10-13T11:55:55.136Z,101551.00
2022-10-13T11:58:28.629Z,101549.19
2022-10-13T12:01:08.675Z,101542.13
2022-10-13T12:03:39.802Z,101538.53
2022-10-13T12:06:22.813Z,101532.38
2022-10-13T12:08:52.052Z,101521.81
2022-10-13T12:11:32.387Z,101526.19
2022-10-13T12:14:01.083Z,101520.00
2022-10-13T12:16:29.425Z,101519.97
2022-10-13T12:19:19.865Z,101527.88
2022-10-13T12:21:52.164Z,101530.47
2022-10-13T12:24:23.331Z,101526.97
2022-10-13T12:26:51.454Z,101533.06
2022-10-13T12:29:24.650Z,101528.66
2022-10-13T12:31:52.286Z,101527.78
2022-10-13T12:34:32.786Z,101526.00
2022-10-13T12:37:14.190Z,101524.22
2022-10-13T12:39:41.369Z,101528.56
2022-10-13T12:42:11.460Z,101527.66
2022-10-13T12:44:38.902Z,101531.09
2022-10-13T12:47:06.129Z,101535.47
2022-10-13T12:49:36.192Z,101529.31
2022-10-13T12:52:09.277Z,101526.69
2022-10-13T12:54:47.473Z,101522.25
2022-10-13T12:57:36.018Z,101530.13
2022-10-13T13:00:17.326Z,101522.16
2022-10-13T13:03:02.247Z,101514.25
2022-10-13T13:05:41.031Z,101515.16
2022-10-13T13:08:29.633Z,101511.59
2022-10-13T13:11:01.941Z,101511.59
2022-10-13T13:13:29.581Z,101504.63
2022-10-13T13:16:20.952Z,101512.53
2022-10-13T13:18:50.603Z,101506.38
2022-10-13T13:21:20.088Z,101494.03
2022-10-13T13:23:52.845Z,101487.00
2022-10-13T13:26:23.665Z,101498.41
2022-10-13T13:28:55.959Z,101489.63
2022-10-13T13:31:25.689Z,101497.53
2022-10-13T13:33:53.127Z,101487.88
2022-10-13T13:36:24.292Z,101495.81
2022-10-13T13:38:54.644Z,101490.56
2022-10-13T13:41:22.402Z,101493.19
2022-10-13T13:43:50.457Z,101492.34
2022-10-13T13:46:24.746Z,101501.16
2022-10-13T13:48:52.037Z,101491.53
2022-10-13T13:51:19.254Z,101489.75
2022-10-13T13:53:46.794Z,101488.00
2022-10-13T13:56:18.017Z,101488.00
2022-10-13T13:58:45.392Z,101492.41
2022-10-13T14:01:13.807Z,101484.47
2022-10-13T14:03:40.690Z,101490.69
2022-10-13T14:06:08.830Z,101484.53
2022-10-13T14:08:42.584Z,101482.03
2022-10-13T14:11:10.263Z,101476.56
2022-10-13T14:13:37.150Z,101473.06
2022-10-13T14:16:04.636Z,101486.25
2022-10-13T14:18:32.125Z,101493.31
2022-10-13T14:20:59.129Z,101488.06
2022-10-13T14:23:26.131Z,101494.19
2022-10-13T14:25:53.009Z,101482.81
2022-10-13T14:28:20.852Z,101495.09
2022-10-13T14:30:48.017Z,101495.09
2022-10-13T14:33:19.252Z,101488.91
2022-10-13T14:35:46.922Z,101481.91
2022-10-13T14:38:16.376Z,101480.19
2022-10-13T14:40:44.492Z,101480.19
2022-10-13T14:43:11.374Z,101479.34
2022-10-13T14:45:38.242Z,101479.34
2022-10-13T14:48:06.026Z,101483.75
2022-10-13T14:50:34.331Z,101484.69
2022-10-13T14:53:01.230Z,101482.09
2022-10-13T14:55:28.766Z,101490.88
2022-10-13T14:57:55.646Z,101492.66
2022-10-13T15:00:22.506Z,101479.47
2022-10-13T15:02:49.370Z,101469.81
2022-10-13T15:05:16.348Z,101466.28
2022-10-13T15:07:43.224Z,101468.06
2022-10-13T15:10:10.228Z,101458.47
2022-10-13T15:12:37.094Z,101455.00
2022-10-13T15:15:04.944Z,101453.28
2022-10-13T15:17:33.233Z,101446.25
2022-10-13T15:20:00.461Z,101457.72
2022-10-13T15:22:27.366Z,101448.09
2022-10-13T15:24:54.237Z,101453.44
2022-10-13T15:27:21.129Z,101459.59
2022-10-13T15:29:48.005Z,101457.91
2022-10-13T15:32:18.609Z,101450.94
2022-10-13T15:34:50.392Z,101453.59
2022-10-13T15:37:17.288Z,101448.44
2022-10-13T15:39:44.153Z,101455.47
2022-10-13T15:42:12.132Z,101460.75
2022-10-13T15:47:25.897Z,101453.81
2022-10-13T15:49:52.771Z,101452.97
2022-10-13T15:52:20.107Z,101453.88
2022-10-13T15:54:51.229Z,101448.72
2022-10-13T15:57:18.251Z,101452.25
2022-10-13T15:59:45.131Z,101447.03
2022-10-13T16:02:12.031Z,101441.81
2022-10-13T16:04:38.995Z,101434.06
2022-10-13T16:07:05.877Z,101455.94
2022-10-13T16:09:32.767Z,101459.53
2022-10-13T16:11:59.712Z,101467.47
2022-10-13T16:14:26.595Z,101461.41
2022-10-13T16:16:53.454Z,101455.31
2022-10-13T16:19:20.400Z,101451.78
2022-10-13T16:21:47.269Z,101448.34
2022-10-13T16:24:14.894Z,101449.28
2022-10-13T16:26:41.762Z,101457.22
2022-10-13T16:29:08.671Z,101455.50
2022-10-13T16:31:35.560Z,101466.94
2022-10-13T16:34:02.452Z,101454.72
2022-10-13T16:36:29.388Z,101463.53
2022-10-13T16:38:56.299Z,101462.66
2022-10-13T16:41:23.884Z,101455.69
2022-10-13T16:43:50.818Z,101447.00
2022-10-13T16:46:20.514Z,101447.03
2022-10-13T16:48:48.278Z,101448.78
2022-10-13T16:51:21.940Z,101450.59
2022-10-13T16:53:57.608Z,101454.13
2022-10-13T16:56:28.115Z,101445.38
2022-10-13T16:58:58.375Z,101447.16
2022-10-13T17:01:26.055Z,101449.81
2022-10-13T17:03:53.450Z,101446.31
2022-10-13T17:06:23.716Z,101438.50
2022-10-13T17:09:03.074Z,101446.38
2022-10-13T17:11:31.921Z,101434.97
2022-10-13T17:14:00.200Z,101439.38
2022-10-13T17:16:31.296Z,101432.41
2022-10-13T17:18:58.189Z,101437.66
2022-10-13T17:21:33.091Z,101442.09
2022-10-13T17:23:59.956Z,101435.09
2022-10-13T17:26:26.824Z,101433.38
2022-10-13T17:28:54.351Z,101432.47
2022-10-13T17:31:23.749Z,101436.88
2022-10-13T17:33:51.555Z,101428.13
2022-10-13T17:36:26.860Z,101425.53
2022-10-13T17:38:55.871Z,101434.31
2022-10-13T17:41:24.312Z,101439.59
2022-10-13T17:43:51.984Z,101432.63
2022-10-13T17:46:40.598Z,101435.28
2022-10-13T17:49:11.399Z,101436.19
2022-10-13T17:51:40.364Z,101441.41
2022-10-13T17:54:11.489Z,101435.28
2022-10-13T17:56:41.600Z,101435.28
2022-10-13T17:59:09.855Z,101431.81
2022-10-13T18:01:37.560Z,101427.47
2022-10-13T18:04:08.477Z,101430.09
2022-10-13T18:06:43.645Z,101422.25
2022-10-13T18:09:14.434Z,101429.28
2022-10-13T18:11:48.818Z,101429.28
2022-10-13T18:14:19.755Z,101433.69
2022-10-13T18:16:50.542Z,101431.06
2022-10-13T18:19:17.723Z,101431.94
2022-10-13T18:21:44.608Z,101436.34
2022-10-13T18:24:12.058Z,101429.38
2022-10-13T18:26:39.363Z,101434.63
2022-10-13T18:29:08.569Z,101428.50
2022-10-13T18:31:37.714Z,101424.16
2022-10-13T18:34:12.376Z,101429.41
2022-10-13T18:36:47.242Z,101422.44
2022-10-13T18:39:17.924Z,101428.53
2022-10-13T18:41:47.917Z,101422.44
2022-10-13T18:44:14.983Z,101436.44
2022-10-13T18:46:42.480Z,101425.97
2022-10-13T18:49:12.984Z,101422.47
2022-10-13T18:51:42.074Z,101432.06
2022-10-13T18:54:09.040Z,101426.84
2022-10-13T18:56:37.024Z,101425.94
2022-10-13T18:59:06.381Z,101427.72
2022-10-13T19:01:35.475Z,101429.47
2022-10-13T19:04:02.695Z,101419.84
2022-10-13T19:06:32.197Z,101430.34
2022-10-13T19:09:06.612Z,101423.38
2022-10-13T19:11:37.026Z,101419.06
2022-10-13T19:14:06.882Z,101422.50
2022-10-13T19:16:38.491Z,101421.63
2022-10-13T19:19:06.685Z,101417.28
2022-10-13T19:21:33.563Z,101413.78
2022-10-13T19:24:01.075Z,101414.63
2022-10-13T19:26:32.490Z,101419.03
2022-10-13T19:29:07.574Z,101421.63
2022-10-13T19:31:36.180Z,101420.75
2022-10-13T19:34:08.020Z,101421.63
2022-10-13T19:36:42.108Z,101417.28
2022-10-13T19:39:20.557Z,101417.28
2022-10-13T19:41:49.229Z,101419.03
2022-10-13T19:44:18.380Z,101413.78
2022-10-13T19:46:46.709Z,101409.41
2022-10-13T19:49:17.167Z,101416.41
2022-10-13T19:51:47.789Z,101418.16
2022-10-13T19:54:15.303Z,101415.53
2022-10-13T19:56:48.226Z,101412.91
2022-10-13T19:59:16.009Z,101419.03
2022-10-13T20:01:43.246Z,101419.91
2022-10-13T20:04:14.558Z,101420.78
2022-10-13T20:06:43.637Z,101423.41
2022-10-13T20:09:10.625Z,101420.78
2022-10-13T20:11:37.547Z,101431.28
2022-10-13T20:14:04.569Z,101413.75
2022-10-13T20:16:31.587Z,101420.75
2022-10-13T20:19:00.144Z,101413.75
2022-10-13T20:21:28.540Z,101419.91
2022-10-13T20:23:55.924Z,101428.63
2022-10-13T20:26:23.704Z,101414.66
2022-10-13T20:28:52.191Z,101413.78
2022-10-13T20:31:21.552Z,101416.41
2022-10-13T20:33:53.941Z,101415.50
2022-10-13T20:36:21.089Z,101418.13
2022-10-13T20:38:49.257Z,101416.38
2022-10-13T20:41:29.660Z,101421.63
2022-10-13T20:43:59.726Z,101409.38
2022-10-13T20:46:27.358Z,101418.13
2022-10-13T20:49:11.765Z,101417.25
2022-10-13T20:51:39.623Z,101420.75
2022-10-13T20:54:06.735Z,101418.13
2022-10-13T20:56:33.737Z,101417.22
2022-10-13T20:59:08.505Z,101423.31
2022-10-13T21:01:35.872Z,101412.84
2022-10-13T21:04:03.066Z,101408.44
2022-10-13T21:06:30.476Z,101411.91
2022-10-13T21:09:00.717Z,101414.53
2022-10-13T21:11:27.670Z,101411.91
2022-10-13T21:13:54.552Z,101400.53
2022-10-13T21:16:27.150Z,101411.00
2022-10-13T21:18:56.437Z,101411.00
2022-10-13T21:21:26.600Z,101411.00
2022-10-13T21:24:01.631Z,101412.72
2022-10-13T21:26:30.450Z,101413.63
2022-10-13T21:28:57.585Z,101411.81
2022-10-13T21:31:25.534Z,101410.09
2022-10-13T21:33:52.510Z,101403.94
2022-10-13T21:36:26.718Z,101407.47
2022-10-13T21:38:57.325Z,101409.22
2022-10-13T21:41:24.789Z,101410.09
2022-10-13T21:43:52.735Z,101401.34
2022-10-13T21:46:30.228Z,101397.84
2022-10-13T21:49:00.646Z,101397.84
2022-10-13T21:51:36.833Z,101399.63
2022-10-13T21:54:09.588Z,101396.13
2022-10-13T21:56:37.920Z,101407.50
2022-10-13T21:59:05.751Z,101397.03
2022-10-13T22:01:33.715Z,101405.78
2022-10-13T22:04:02.460Z,101400.53
2022-10-13T22:06:32.112Z,101402.31
2022-10-13T22:09:01.573Z,101402.34
2022-10-13T22:11:31.874Z,101404.09
2022-10-13T22:14:04.627Z,101397.09
2022-10-13T22:16:42.109Z,101396.22
2022-10-13T22:19:10.544Z,101398.88
2022-10-13T22:21:42.880Z,101398.00
2022-10-13T22:24:19.876Z,101394.50
2022-10-13T22:26:49.160Z,101393.63
2022-10-13T22:29:20.478Z,101390.16
2022-10-13T22:31:47.731Z,101384.03
2022-10-13T22:34:15.938Z,101388.41
2022-10-13T22:36:45.039Z,101383.16
2022-10-13T22:39:12.762Z,101390.16
2022-10-13T22:41:39.688Z,101381.41
2022-10-13T22:44:06.817Z,101385.75
2022-10-13T22:46:36.920Z,101377.03
2022-10-13T22:49:05.321Z,101384.94
2022-10-13T22:51:34.600Z,101375.28
2022-10-13T22:54:01.735Z,101371.78
2022-10-13T22:56:32.453Z,101371.81
2022-10-13T22:59:07.516Z,101382.28
2022-10-13T23:01:34.658Z,101377.94
2022-10-13T23:04:01.705Z,101371.81
2022-10-13T23:06:33.047Z,101375.31
2022-10-13T23:09:05.395Z,101369.22
2022-10-13T23:11:32.339Z,101372.72
2022-10-13T23:14:01.372Z,101370.97
2022-10-13T23:16:28.637Z,101363.16
2022-10-13T23:18:55.865Z,101371.03
2022-10-13T23:21:26.234Z,101372.78
2022-10-13T23:23:59.606Z,101372.78
2022-10-13T23:26:27.618Z,101375.41
2022-10-13T23:28:58.600Z,101374.53
2022-10-13T23:31:27.569Z,101371.03
2022-10-13T23:33:54.595Z,101361.44
2022-10-13T23:36:25.444Z,101369.28
2022-10-13T23:38:58.742Z,101363.19
2022-10-13T23:41:26.544Z,101365.84
2022-10-13T23:43:53.541Z,101369.34
2022-10-13T23:46:20.744Z,101368.47
2022-10-13T23:48:47.667Z,101367.59
2022-10-13T23:51:19.933Z,101360.63
2022-10-13T23:53:47.177Z,101358.00
2022-10-13T23:56:15.447Z,101353.66
2022-10-13T23:58:43.872Z,101353.66
